Time;durP1;ratioP1;P1;durP2;ratioP2;P2;SDS_P1;SDS_P2;PMS_P1;PMS_P2;Temp;Humidity;BMP_temperature;BMP_pressure;BME280_temperature;BME280_humidity;BME280_pressure;Samples;Min_cycle;Max_cycle;Signal;HPM_P1;HPM_P2
2021/04/15 00:01:59;;;;;;;0.15;0.10;;;4.00;73.70;;;;;;5054209;28;20494;-77
2021/04/15 00:04:26;;;;;;;0.22;0.20;;;4.00;73.80;;;;;;5037311;28;20120;-78
2021/04/15 00:06:52;;;;;;;0.43;0.20;;;4.00;73.80;;;;;;5054044;28;20040;-77
2021/04/15 00:09:22;;;;;;;0.15;0.15;;;4.00;73.80;;;;;;5034740;28;20056;-78
2021/04/15 00:11:49;;;;;;;0.40;0.10;;;4.00;73.90;;;;;;5020340;28;20403;-78
2021/04/15 00:14:20;;;;;;;0.10;0.10;;;3.90;73.80;;;;;;5040504;28;20040;-78
2021/04/15 00:16:47;;;;;;;0.10;0.10;;;4.10;73.90;;;;;;5036618;28;20068;-77
2021/04/15 00:19:15;;;;;;;0.00;0.00;;;4.10;73.90;;;;;;5019031;28;20099;-78
2021/04/15 00:21:42;;;;;;;0.20;0.10;;;4.00;73.80;;;;;;5035698;28;20083;-77
2021/04/15 00:24:08;;;;;;;0.10;0.10;;;4.00;73.80;;;;;;5020444;28;20043;-79
2021/04/15 00:26:35;;;;;;;0.22;0.20;;;4.00;73.80;;;;;;5033360;28;20052;-76
2021/04/15 00:29:01;;;;;;;0.20;0.10;;;4.10;73.90;;;;;;5034816;28;20106;-81
2021/04/15 00:31:29;;;;;;;0.00;0.00;;;4.10;73.90;;;;;;5035294;28;20563;-77
2021/04/15 00:33:56;;;;;;;0.10;0.10;;;4.10;73.90;;;;;;4991513;28;20101;-77
2021/04/15 00:36:25;;;;;;;0.25;0.17;;;4.10;73.90;;;;;;4991608;28;20393;-78
2021/04/15 00:38:52;;;;;;;0.08;0.08;;;4.20;73.90;;;;;;4944078;28;20467;-78
2021/04/15 00:41:19;;;;;;;0.15;0.10;;;4.10;73.90;;;;;;4959598;28;20046;-78
2021/04/15 00:43:52;;;;;;;0.10;0.10;;;4.20;74.00;;;;;;4992032;28;20129;-78
2021/04/15 00:46:52;;;;;;;0.10;0.10;;;4.20;74.00;;;;;;4943412;28;20042;-77
2021/04/15 00:49:31;;;;;;;0.10;0.10;;;4.20;74.10;;;;;;4991332;28;20046;-77
2021/04/15 00:52:03;;;;;;;0.08;0.08;;;4.20;74.00;;;;;;4975091;28;20046;-77
2021/04/15 00:54:36;;;;;;;0.10;0.10;;;4.20;74.10;;;;;;4974869;28;20049;-77
2021/04/15 00:57:06;;;;;;;0.00;0.00;;;4.10;74.10;;;;;;4975531;28;20055;-76
2021/04/15 00:59:32;;;;;;;0.13;0.13;;;4.20;74.20;;;;;;4958670;28;20035;-77
2021/04/15 01:01:59;;;;;;;0.10;0.10;;;4.10;74.30;;;;;;4975369;28;20042;-76
2021/04/15 01:04:25;;;;;;;0.10;0.10;;;4.10;74.40;;;;;;4991726;28;20041;-76
2021/04/15 01:06:51;;;;;;;0.05;0.05;;;4.10;74.50;;;;;;5034476;28;20041;-76
2021/04/15 01:09:18;;;;;;;0.22;0.10;;;4.10;75.30;;;;;;5052570;28;20045;-75
2021/04/15 01:12:09;;;;;;;0.28;0.10;;;4.00;74.80;;;;;;5033179;28;20052;-74
2021/04/15 01:15:02;;;;;;;0.35;0.10;;;4.00;75.70;;;;;;5018055;28;20048;-74
2021/04/15 01:17:39;;;;;;;0.10;0.10;;;4.00;75.10;;;;;;5049972;28;20106;-74
2021/04/15 01:20:30;;;;;;;0.10;0.10;;;4.00;75.20;;;;;;5035346;28;20406;-75
2021/04/15 01:23:20;;;;;;;0.10;0.10;;;4.00;75.30;;;;;;5050668;28;20036;-75
2021/04/15 01:26:18;;;;;;;0.03;0.03;;;4.00;75.40;;;;;;5034090;28;20040;-75
2021/04/15 01:29:13;;;;;;;0.05;0.05;;;3.90;75.50;;;;;;5050918;28;20041;-75
2021/04/15 01:32:04;;;;;;;0.00;0.00;;;3.90;75.60;;;;;;5034162;28;20383;-75
2021/04/15 01:34:43;;;;;;;0.00;0.00;;;3.90;75.60;;;;;;5052059;28;20041;-75
2021/04/15 01:37:21;;;;;;;0.00;0.00;;;3.90;75.70;;;;;;5034043;28;20564;-75
2021/04/15 01:39:54;;;;;;;0.22;0.08;;;3.90;75.90;;;;;;5017813;28;20044;-75
2021/04/15 01:42:31;;;;;;;0.00;0.00;;;3.90;75.90;;;;;;5018309;28;20086;-75
2021/04/15 01:45:01;;;;;;;0.10;0.10;;;3.90;76.00;;;;;;5035071;28;20120;-75
2021/04/15 01:47:37;;;;;;;0.08;0.03;;;3.80;76.00;;;;;;5034234;28;20064;-75
2021/04/15 01:50:12;;;;;;;0.10;0.10;;;3.80;76.20;;;;;;5034143;28;20082;-75
2021/04/15 01:52:42;;;;;;;0.00;0.00;;;3.80;76.30;;;;;;5018108;28;20059;-75
2021/04/15 01:55:16;;;;;;;0.00;0.00;;;3.80;76.40;;;;;;5033903;28;20080;-75
2021/04/15 01:58:05;;;;;;;0.00;0.00;;;3.70;76.50;;;;;;5034507;28;20091;-75
2021/04/15 02:00:34;;;;;;;0.00;0.00;;;3.80;76.70;;;;;;5030828;28;20045;-76
2021/04/15 02:03:11;;;;;;;0.00;0.00;;;3.80;76.60;;;;;;5033862;28;20048;-76
2021/04/15 02:05:41;;;;;;;0.08;0.03;;;3.70;76.70;;;;;;5016369;28;20048;-76
2021/04/15 02:08:19;;;;;;;0.08;0.08;;;3.70;76.70;;;;;;5051467;28;20128;-75
2021/04/15 02:10:52;;;;;;;0.08;0.08;;;3.70;76.80;;;;;;5034665;28;20044;-75
2021/04/15 02:13:20;;;;;;;0.00;0.00;;;3.80;76.90;;;;;;5032543;28;20045;-76
2021/04/15 02:15:50;;;;;;;0.10;0.10;;;3.80;76.90;;;;;;5051432;28;20407;-76
2021/04/15 02:18:31;;;;;;;0.00;0.00;;;3.80;76.90;;;;;;5051791;28;20037;-75
2021/04/15 02:21:13;;;;;;;0.00;0.00;;;3.70;77.00;;;;;;5033554;28;20425;-76
2021/04/15 02:23:49;;;;;;;0.03;0.03;;;3.80;77.00;;;;;;5036220;28;20038;-75
2021/04/15 02:26:26;;;;;;;0.05;0.00;;;3.80;77.00;;;;;;5038159;28;20437;-75
2021/04/15 02:29:03;;;;;;;0.00;0.00;;;3.70;77.00;;;;;;5037557;28;20513;-76
2021/04/15 02:31:44;;;;;;;0.10;0.10;;;3.80;77.30;;;;;;5021371;28;20075;-76
2021/04/15 02:34:18;;;;;;;0.30;0.08;;;3.80;77.10;;;;;;5055323;28;20037;-76
2021/04/15 02:36:51;;;;;;;0.00;0.00;;;3.80;77.10;;;;;;5037351;28;20352;-76
2021/04/15 02:39:24;;;;;;;0.10;0.10;;;3.70;77.20;;;;;;5021054;28;20048;-76
2021/04/15 02:41:52;;;;;;;0.38;0.05;;;3.80;77.20;;;;;;5034209;28;20127;-76
2021/04/15 02:44:29;;;;;;;0.00;0.00;;;3.70;77.20;;;;;;5016941;28;20181;-75
2021/04/15 02:47:03;;;;;;;0.30;0.10;;;3.80;77.40;;;;;;5034743;28;20037;-76
2021/04/15 02:49:32;;;;;;;0.00;0.00;;;3.80;77.40;;;;;;5020433;28;20052;-76
2021/04/15 02:52:02;;;;;;;0.10;0.10;;;3.80;77.30;;;;;;5037136;28;20053;-76
2021/04/15 02:54:35;;;;;;;0.00;0.00;;;3.90;77.40;;;;;;5036528;28;20383;-76
2021/04/15 02:57:11;;;;;;;0.00;0.00;;;3.80;77.40;;;;;;5054516;28;20128;-76
2021/04/15 03:00:03;;;;;;;0.17;0.10;;;3.80;77.40;;;;;;5035623;28;20063;-76
2021/04/15 03:02:31;;;;;;;;;;;3.80;77.50;;;;;;5054092;28;20037;-76
2021/04/15 03:05:07;;;;;;;0.10;0.10;;;3.90;77.40;;;;;;5054299;28;19920;-76
2021/04/15 03:07:37;;;;;;;0.10;0.10;;;3.80;77.30;;;;;;5036380;28;20437;-76
2021/04/15 03:10:07;;;;;;;0.10;0.10;;;3.90;77.40;;;;;;5036519;28;20080;-75
2021/04/15 03:12:38;;;;;;;0.10;0.10;;;3.80;77.40;;;;;;5036967;28;20041;-75
2021/04/15 03:15:11;;;;;;;0.10;0.10;;;3.80;77.60;;;;;;5019884;28;20433;-75
2021/04/15 03:17:44;;;;;;;0.00;0.00;;;3.80;77.70;;;;;;5016909;28;20039;-75
2021/04/15 03:20:16;;;;;;;0.10;0.10;;;3.80;77.80;;;;;;5051281;28;20029;-75
2021/04/15 03:22:58;;;;;;;0.00;0.00;;;3.70;77.90;;;;;;5052200;28;20064;-76
2021/04/15 03:25:24;;;;;;;;;;;3.70;78.00;;;;;;5018482;28;20044;-75
2021/04/15 03:28:05;;;;;;;0.10;0.10;;;3.80;78.00;;;;;;5053938;28;19917;-76
2021/04/15 03:31:05;;;;;;;0.10;0.10;;;3.70;77.90;;;;;;5036530;28;20102;-75
2021/04/15 03:33:51;;;;;;;0.00;0.00;;;3.70;78.00;;;;;;5052191;28;20067;-75
2021/04/15 03:36:27;;;;;;;0.10;0.10;;;3.70;78.00;;;;;;5019835;28;20443;-75
2021/04/15 03:39:00;;;;;;;0.10;0.10;;;3.70;78.00;;;;;;5004177;28;20432;-75
2021/04/15 03:41:35;;;;;;;0.10;0.10;;;3.70;78.10;;;;;;5016649;28;20091;-75
2021/04/15 03:44:09;;;;;;;0.00;0.00;;;3.60;78.20;;;;;;5018364;28;20037;-75
2021/04/15 03:46:42;;;;;;;0.10;0.10;;;3.50;78.30;;;;;;5053720;28;20067;-75
2021/04/15 03:49:34;;;;;;;0.05;0.05;;;3.50;78.40;;;;;;5019769;28;20049;-75
2021/04/15 03:52:06;;;;;;;;;;;3.40;78.60;;;;;;5053917;28;20510;-75
2021/04/15 03:54:40;;;;;;;0.00;0.00;;;3.40;78.50;;;;;;5034688;28;20000;-75
2021/04/15 03:57:11;;;;;;;0.10;0.10;;;3.30;78.60;;;;;;5053569;28;20057;-75
2021/04/15 03:59:54;;;;;;;0.00;0.00;;;3.30;78.70;;;;;;5019674;28;20486;-75
2021/04/15 04:02:28;;;;;;;0.03;0.03;;;3.20;78.80;;;;;;5053462;28;20045;-75
2021/04/15 04:05:02;;;;;;;0.00;0.00;;;3.20;78.90;;;;;;5019872;28;20530;-75
2021/04/15 04:07:42;;;;;;;0.08;0.08;;;3.30;79.10;;;;;;5017612;28;20080;-75
2021/04/15 04:10:22;;;;;;;0.03;0.03;;;3.20;79.10;;;;;;5035822;28;20120;-75
2021/04/15 04:13:15;;;;;;;0.10;0.10;;;3.20;79.10;;;;;;5051204;28;20387;-75
2021/04/15 04:15:47;;;;;;;0.10;0.10;;;3.20;79.20;;;;;;5053425;28;20047;-75
2021/04/15 04:18:22;;;;;;;0.20;0.00;;;3.20;79.20;;;;;;5032019;28;20146;-76
2021/04/15 04:20:49;;;;;;;0.05;0.05;;;3.20;79.20;;;;;;5033053;28;20045;-76
2021/04/15 04:23:48;;;;;;;0.00;0.00;;;3.10;79.20;;;;;;5019342;28;20036;-76
2021/04/15 04:26:35;;;;;;;0.10;0.10;;;3.10;79.30;;;;;;5051375;28;20124;-75
2021/04/15 04:29:25;;;;;;;0.00;0.00;;;3.10;79.30;;;;;;5016215;28;20130;-75
2021/04/15 04:31:54;;;;;;;0.10;0.10;;;3.00;79.30;;;;;;5035202;28;20074;-76
2021/04/15 04:34:23;;;;;;;0.30;0.10;;;3.00;79.30;;;;;;5035690;28;20041;-76
2021/04/15 04:36:53;;;;;;;0.00;0.00;;;2.90;79.30;;;;;;5033915;28;20128;-76
2021/04/15 04:39:21;;;;;;;0.03;0.00;;;2.90;79.50;;;;;;5035219;28;20486;-75
2021/04/15 04:41:56;;;;;;;0.00;0.00;;;2.90;79.60;;;;;;5019500;28;20051;-76
2021/04/15 04:44:40;;;;;;;0.00;0.00;;;2.90;79.60;;;;;;5018810;28;20459;-76
2021/04/15 04:47:23;;;;;;;0.00;0.00;;;2.90;79.70;;;;;;5052559;28;20041;-76
2021/04/15 04:50:01;;;;;;;0.00;0.00;;;2.90;79.70;;;;;;5001292;28;20125;-75
2021/04/15 04:52:30;;;;;;;0.00;0.00;;;2.90;79.70;;;;;;5019128;28;20052;-75
2021/04/15 04:54:57;;;;;;;0.00;0.00;;;3.00;79.70;;;;;;5018594;28;20045;-74
2021/04/15 04:57:31;;;;;;;0.00;0.00;;;2.90;79.60;;;;;;5035377;28;20124;-76
2021/04/15 05:00:06;;;;;;;0.00;0.00;;;3.00;79.60;;;;;;5002940;28;20127;-77
2021/04/15 05:02:32;;;;;;;0.10;0.10;;;3.00;79.60;;;;;;5035001;28;20071;-76
2021/04/15 05:05:03;;;;;;;0.10;0.10;;;3.00;79.50;;;;;;5052671;28;20570;-77
2021/04/15 05:07:33;;;;;;;0.00;0.00;;;3.10;79.50;;;;;;5034808;28;20056;-76
2021/04/15 05:10:00;;;;;;;0.00;0.00;;;3.10;79.40;;;;;;5034871;28;20506;-77
2021/04/15 05:12:29;;;;;;;0.43;0.10;;;3.10;79.30;;;;;;5018447;28;20037;-76
2021/04/15 05:14:57;;;;;;;0.03;0.03;;;3.10;79.30;;;;;;5033925;28;20047;-76
2021/04/15 05:17:29;;;;;;;0.00;0.00;;;3.20;79.30;;;;;;5052822;28;20048;-76
2021/04/15 05:19:55;;;;;;;;;;;3.20;79.30;;;;;;5016412;28;20044;-77
2021/04/15 05:22:35;;;;;;;0.03;0.03;;;3.20;79.20;;;;;;5052513;28;19913;-76
2021/04/15 05:25:06;;;;;;;0.10;0.10;;;3.20;79.20;;;;;;5031917;28;20037;-76
2021/04/15 05:27:35;;;;;;;0.10;0.10;;;3.20;79.10;;;;;;5052334;28;20041;-77
2021/04/15 05:30:28;;;;;;;0.10;0.10;;;3.20;79.10;;;;;;5052745;28;20036;-77
2021/04/15 05:33:00;;;;;;;0.10;0.10;;;3.30;79.20;;;;;;5033102;28;20049;-76
2021/04/15 05:35:29;;;;;;;;;;;3.30;79.10;;;;;;5035004;28;20068;-76
2021/04/15 05:37:55;;;;;;;0.10;0.10;;;3.30;79.10;;;;;;5033100;28;19919;-77
2021/04/15 05:40:21;;;;;;;0.10;0.10;;;3.30;79.00;;;;;;5052281;28;20040;-77
2021/04/15 05:43:07;;;;;;;0.10;0.10;;;3.30;79.10;;;;;;5018032;28;20048;-77
2021/04/15 05:45:35;;;;;;;0.10;0.10;;;3.30;79.10;;;;;;5035887;28;20059;-77
2021/04/15 05:48:04;;;;;;;0.10;0.10;;;3.30;79.20;;;;;;5017392;28;20052;-77
2021/04/15 05:50:36;;;;;;;0.10;0.10;;;3.30;79.30;;;;;;5017698;28;20087;-77
2021/04/15 05:53:18;;;;;;;0.10;0.10;;;3.30;79.30;;;;;;5002498;28;20095;-77
2021/04/15 05:55:46;;;;;;;;;;;3.40;79.30;;;;;;5033906;28;20037;-77
2021/04/15 05:58:25;;;;;;;0.10;0.10;;;3.30;79.20;;;;;;5033517;28;19905;-76
2021/04/15 06:01:05;;;;;;;0.40;0.10;;;3.40;79.30;;;;;;5017928;28;20395;-77
2021/04/15 06:03:42;;;;;;;0.15;0.10;;;3.40;79.20;;;;;;5033654;28;20037;-76
2021/04/15 06:06:13;;;;;;;0.20;0.15;;;3.40;79.10;;;;;;5032970;28;20033;-75
2021/04/15 06:08:45;;;;;;;0.10;0.10;;;3.50;79.20;;;;;;5051975;28;20064;-76
2021/04/15 06:11:39;;;;;;;0.10;0.10;;;3.50;79.10;;;;;;5047232;28;20441;-76
2021/04/15 06:14:27;;;;;;;0.38;0.10;;;3.60;79.20;;;;;;5050876;28;20037;-77
2021/04/15 06:17:30;;;;;;;0.10;0.10;;;3.60;79.00;;;;;;5033328;28;20158;-76
2021/04/15 06:20:17;;;;;;;0.10;0.10;;;3.80;79.10;;;;;;5049527;28;20041;-76
2021/04/15 06:22:46;;;;;;;0.20;0.10;;;3.80;78.90;;;;;;5049924;28;20498;-76
2021/04/15 06:25:19;;;;;;;0.13;0.13;;;3.90;78.70;;;;;;5050243;28;20152;-76
2021/04/15 06:27:48;;;;;;;0.10;0.10;;;4.00;78.70;;;;;;5050602;28;20037;-76
2021/04/15 06:30:22;;;;;;;0.20;0.20;;;4.20;78.60;;;;;;5050144;28;20076;-77
2021/04/15 06:33:04;;;;;;;1.13;0.20;;;4.30;78.60;;;;;;5049920;28;20098;-76
2021/04/15 06:35:33;;;;;;;0.25;0.25;;;4.40;78.40;;;;;;5046834;28;20102;-76
2021/04/15 06:38:15;;;;;;;0.25;0.25;;;4.60;78.20;;;;;;5049940;28;20095;-76
2021/04/15 06:41:03;;;;;;;0.30;0.22;;;4.80;78.10;;;;;;5051612;28;20052;-76
2021/04/15 06:43:55;;;;;;;0.20;0.20;;;5.10;77.80;;;;;;5046809;28;20068;-77
2021/04/15 06:46:57;;;;;;;0.30;0.20;;;5.10;77.40;;;;;;5035026;28;20036;-76
2021/04/15 06:49:57;;;;;;;0.20;0.20;;;5.30;77.40;;;;;;5050474;28;20123;-77
2021/04/15 06:53:03;;;;;;;0.35;0.20;;;5.40;77.10;;;;;;5051501;28;20148;-77
2021/04/15 06:55:48;;;;;;;0.40;0.40;;;5.50;77.00;;;;;;5046465;28;20080;-76
2021/04/15 06:58:34;;;;;;;0.20;0.20;;;5.70;76.80;;;;;;5045910;28;20040;-74
2021/04/15 07:01:39;;;;;;;0.63;0.30;;;5.80;76.70;;;;;;5049527;28;20044;-75
2021/04/15 07:04:23;;;;;;;1.63;0.40;;;6.00;76.70;;;;;;5049519;28;20037;-77
2021/04/15 07:07:14;;;;;;;0.10;0.10;;;6.00;76.70;;;;;;5047539;28;20040;-75
2021/04/15 07:10:09;;;;;;;0.40;0.23;;;6.00;76.70;;;;;;5050783;28;20057;-75
2021/04/15 07:13:14;;;;;;;0.10;0.10;;;6.20;77.40;;;;;;5052923;28;20053;-75
2021/04/15 07:16:19;;;;;;;0.22;0.15;;;6.30;76.80;;;;;;5051827;28;20111;-76
2021/04/15 07:19:20;;;;;;;0.28;0.17;;;6.50;76.60;;;;;;5052972;28;20079;-75
2021/04/15 07:22:22;;;;;;;0.30;0.10;;;6.50;76.20;;;;;;5045050;28;20074;-76
2021/04/15 07:24:55;;;;;;;;;;;6.60;76.40;;;;;;5054544;28;20656;-76
2021/04/15 07:27:49;;;;;;;0.40;0.30;;;6.70;76.20;;;;;;5054250;28;19919;-75
2021/04/15 07:30:40;;;;;;;0.30;0.20;;;6.80;76.20;;;;;;5036263;28;20146;-75
2021/04/15 07:33:22;;;;;;;0.65;0.20;;;6.90;76.20;;;;;;5053288;28;20037;-76
2021/04/15 07:36:28;;;;;;;0.40;0.40;;;7.10;76.00;;;;;;5052848;28;20132;-76
2021/04/15 07:39:31;;;;;;;0.30;0.20;;;7.30;75.90;;;;;;5053993;28;20382;-75
2021/04/15 07:42:22;;;;;;;0.20;0.20;;;7.40;75.60;;;;;;5053770;28;20550;-77
2021/04/15 07:45:21;;;;;;;0.13;0.10;;;7.60;75.50;;;;;;5053560;28;20045;-75
2021/04/15 07:48:20;;;;;;;0.10;0.10;;;7.60;75.30;;;;;;5053816;28;20045;-75
2021/04/15 07:51:16;;;;;;;0.45;0.30;;;7.70;75.50;;;;;;5052217;28;20132;-75
2021/04/15 07:54:01;;;;;;;0.60;0.30;;;7.70;75.40;;;;;;5052939;28;20124;-76
2021/04/15 07:56:52;;;;;;;0.30;0.10;;;7.80;75.40;;;;;;5037234;28;20080;-75
2021/04/15 07:59:46;;;;;;;0.20;0.20;;;7.70;75.50;;;;;;5053628;28;20094;-76
2021/04/15 08:02:42;;;;;;;0.10;0.10;;;7.70;75.60;;;;;;5052200;28;20040;-74
2021/04/15 08:05:21;;;;;;;0.20;0.20;;;7.70;75.80;;;;;;5053701;28;20037;-74
2021/04/15 08:08:09;;;;;;;0.40;0.20;;;7.80;75.90;;;;;;5052445;28;20044;-75
2021/04/15 08:11:03;;;;;;;0.57;0.25;;;8.00;75.80;;;;;;5052424;28;20037;-75
2021/04/15 08:13:45;;;;;;;0.30;0.30;;;8.30;75.30;;;;;;5053880;28;20065;-74
2021/04/15 08:16:43;;;;;;;0.30;0.20;;;8.50;74.70;;;;;;5053271;28;20040;-75
2021/04/15 08:19:43;;;;;;;0.20;0.13;;;8.50;74.50;;;;;;5038056;28;20094;-75
2021/04/15 08:22:41;;;;;;;0.10;0.10;;;8.40;75.10;;;;;;5052427;28;20040;-77
2021/04/15 08:25:43;;;;;;;0.35;0.30;;;8.50;75.10;;;;;;5019973;28;20063;-76
2021/04/15 08:28:26;;;;;;;;;;;8.70;74.90;;;;;;5053948;28;20037;-77
2021/04/15 08:31:18;;;;;;;0.30;0.30;;;8.90;74.70;;;;;;5035305;28;20007;-77
2021/04/15 08:33:58;;;;;;;1.33;0.30;;;9.10;74.20;;;;;;5049532;28;20439;-76
2021/04/15 08:36:54;;;;;;;0.30;0.17;;;9.30;73.90;;;;;;5048165;28;20049;-75
2021/04/15 08:39:47;;;;;;;0.28;0.28;;;9.30;73.50;;;;;;5052223;28;20045;-77
2021/04/15 08:42:34;;;;;;;0.20;0.20;;;9.30;73.60;;;;;;5051849;28;20045;-76
2021/04/15 08:45:23;;;;;;;0.20;0.20;;;9.40;73.80;;;;;;5035066;28;20040;-77
2021/04/15 08:48:17;;;;;;;0.30;0.30;;;9.50;73.70;;;;;;5050299;28;20048;-76
2021/04/15 08:51:00;;;;;;;0.63;0.30;;;9.40;73.70;;;;;;5052258;28;20040;-75
2021/04/15 08:53:47;;;;;;;0.20;0.20;;;9.30;73.90;;;;;;5050845;28;20037;-75
2021/04/15 08:56:20;;;;;;;0.30;0.30;;;9.10;74.20;;;;;;5048264;28;20044;-76
2021/04/15 08:59:07;;;;;;;0.13;0.13;;;8.90;74.50;;;;;;5049187;28;20131;-76
2021/04/15 09:01:56;;;;;;;0.52;0.20;;;8.80;74.70;;;;;;5052391;28;20041;-77
2021/04/15 09:04:43;;;;;;;0.15;0.15;;;8.80;75.00;;;;;;5050557;28;20041;-78
2021/04/15 09:07:18;;;;;;;0.17;0.17;;;8.70;75.10;;;;;;5052519;28;20041;-76
2021/04/15 09:10:00;;;;;;;0.30;0.30;;;8.60;75.20;;;;;;5035404;28;20186;-74
2021/04/15 09:12:50;;;;;;;1.20;0.20;;;8.60;75.40;;;;;;5050164;28;20098;-76
2021/04/15 09:15:26;;;;;;;0.25;0.20;;;8.50;75.50;;;;;;5048483;28;20089;-77
2021/04/15 09:18:14;;;;;;;0.25;0.17;;;8.50;75.60;;;;;;5052623;28;20048;-76
2021/04/15 09:21:01;;;;;;;0.20;0.20;;;8.40;75.50;;;;;;5051920;28;20115;-76
2021/04/15 09:24:01;;;;;;;0.10;0.10;;;8.40;75.50;;;;;;5036311;28;20051;-76
2021/04/15 09:27:01;;;;;;;0.20;0.20;;;8.50;75.60;;;;;;5051869;28;20041;-76
2021/04/15 09:29:42;;;;;;;0.28;0.28;;;8.70;75.20;;;;;;5050466;28;20045;-75
2021/04/15 09:32:15;;;;;;;;;;;8.70;74.80;;;;;;5051841;28;20041;-76
2021/04/15 09:35:09;;;;;;;0.32;0.20;;;9.00;74.70;;;;;;5050884;28;20067;-75
2021/04/15 09:38:07;;;;;;;0.15;0.15;;;9.20;74.00;;;;;;5036085;28;20052;-77
2021/04/15 09:40:56;;;;;;;0.10;0.10;;;9.40;73.30;;;;;;5051218;28;20498;-76
2021/04/15 09:44:01;;;;;;;0.30;0.20;;;9.60;73.20;;;;;;5051587;28;20122;-77
2021/04/15 09:46:45;;;;;;;0.20;0.20;;;9.70;72.50;;;;;;5050821;28;20495;-77
2021/04/15 09:49:43;;;;;;;0.43;0.20;;;9.80;72.40;;;;;;5014901;28;20126;-79
2021/04/15 09:52:33;;;;;;;0.10;0.10;;;10.10;72.20;;;;;;4996498;28;20091;-75
2021/04/15 09:55:12;;;;;;;0.20;0.20;;;10.20;71.80;;;;;;5031735;28;20068;-74
2021/04/15 09:57:55;;;;;;;0.10;0.10;;;10.10;71.50;;;;;;5030469;28;20203;-75
2021/04/15 10:00:35;;;;;;;0.17;0.17;;;10.10;71.70;;;;;;5015392;28;20049;-75
2021/04/15 10:03:13;;;;;;;0.55;0.30;;;9.90;72.00;;;;;;5015382;28;20045;-74
2021/04/15 10:06:18;;;;;;;0.30;0.30;;;9.70;72.20;;;;;;4999788;28;20123;-75
2021/04/15 10:09:05;;;;;;;0.30;0.20;;;9.50;72.70;;;;;;5036950;28;20065;-77
2021/04/15 10:12:06;;;;;;;0.20;0.20;;;9.40;72.90;;;;;;5030943;28;20046;-79
2021/04/15 10:14:49;;;;;;;0.45;0.20;;;9.50;73.00;;;;;;5024975;28;20041;-77
2021/04/15 10:17:38;;;;;;;0.47;0.20;;;9.60;73.20;;;;;;5006070;28;20068;-75
2021/04/15 10:20:26;;;;;;;0.25;0.25;;;9.70;72.80;;;;;;5031141;28;20045;-75
2021/04/15 10:23:29;;;;;;;0.30;0.30;;;9.70;72.30;;;;;;5050088;28;20049;-76
2021/04/15 10:26:17;;;;;;;0.28;0.20;;;9.70;72.90;;;;;;5051610;28;20091;-75
2021/04/15 10:29:22;;;;;;;0.20;0.20;;;9.80;72.10;;;;;;5029914;28;20046;-77
2021/04/15 10:32:07;;;;;;;0.28;0.10;;;9.80;72.00;;;;;;5027290;28;20040;-75
2021/04/15 10:35:04;;;;;;;0.55;0.20;;;9.90;72.10;;;;;;5045746;28;20071;-75
2021/04/15 10:37:58;;;;;;;0.30;0.17;;;9.90;71.70;;;;;;5023962;28;20058;-77
2021/04/15 10:40:50;;;;;;;0.20;0.20;;;10.00;71.50;;;;;;5027646;28;20069;-76
2021/04/15 10:43:40;;;;;;;0.35;0.20;;;10.00;71.40;;;;;;5022157;28;20218;-76
2021/04/15 10:46:26;;;;;;;0.20;0.20;;;10.00;71.30;;;;;;5016457;28;20218;-75
2021/04/15 10:49:01;;;;;;;0.30;0.30;;;10.20;71.40;;;;;;5018333;28;20041;-76
2021/04/15 10:51:39;;;;;;;0.20;0.20;;;10.20;71.40;;;;;;5017640;28;20053;-76
2021/04/15 10:54:26;;;;;;;0.38;0.20;;;10.10;71.00;;;;;;5032636;28;20033;-76
2021/04/15 10:56:56;;;;;;;0.20;0.20;;;10.10;71.10;;;;;;5017314;28;20049;-76
2021/04/15 10:59:38;;;;;;;0.20;0.20;;;10.00;71.00;;;;;;5038643;28;20394;-77
2021/04/15 11:02:24;;;;;;;0.52;0.30;;;10.20;71.10;;;;;;5057242;28;20050;-77
2021/04/15 11:04:53;;;;;;;0.20;0.20;;;10.40;70.40;;;;;;5018189;28;20133;-77
2021/04/15 11:07:33;;;;;;;0.20;0.20;;;10.50;70.30;;;;;;5000595;28;20060;-76
2021/04/15 11:10:21;;;;;;;0.10;0.10;;;10.50;70.00;;;;;;4997301;28;20056;-78
2021/04/15 11:12:48;;;;;;;0.20;0.20;;;10.50;70.10;;;;;;4982310;28;20046;-77
2021/04/15 11:15:22;;;;;;;0.50;0.30;;;10.70;70.10;;;;;;5004345;28;20111;-78
2021/04/15 11:17:53;;;;;;;0.30;0.30;;;10.70;69.80;;;;;;5016135;28;20044;-78
2021/04/15 11:20:30;;;;;;;0.10;0.10;;;10.70;69.60;;;;;;5018686;28;20088;-77
2021/04/15 11:23:27;;;;;;;0.30;0.30;;;10.60;69.60;;;;;;5016877;28;20053;-75
2021/04/15 11:26:09;;;;;;;0.22;0.20;;;10.60;69.60;;;;;;5015288;28;20045;-78
2021/04/15 11:28:35;;;;;;;0.10;0.10;;;10.70;69.50;;;;;;4999228;28;20123;-77
2021/04/15 11:31:21;;;;;;;0.40;0.20;;;10.60;69.40;;;;;;5015565;28;20048;-77
2021/04/15 11:34:02;;;;;;;0.20;0.20;;;10.80;69.20;;;;;;5032172;28;20136;-79
2021/04/15 11:36:32;;;;;;;0.20;0.20;;;10.80;68.70;;;;;;5044328;28;20418;-79
2021/04/15 11:39:15;;;;;;;0.30;0.30;;;11.00;68.60;;;;;;5052819;28;20443;-78
2021/04/15 11:41:55;;;;;;;0.20;0.20;;;11.20;68.30;;;;;;5035694;28;20063;-77
2021/04/15 11:44:29;;;;;;;0.60;0.40;;;11.50;67.90;;;;;;5058821;28;20045;-77
2021/04/15 11:46:59;;;;;;;0.30;0.30;;;11.60;67.60;;;;;;5061281;28;20049;-80
2021/04/15 11:49:37;;;;;;;0.55;0.38;;;11.70;67.30;;;;;;5059767;28;20486;-76
2021/04/15 11:52:16;;;;;;;1.17;0.30;;;11.90;67.00;;;;;;5053430;28;20036;-76
2021/04/15 11:55:16;;;;;;;0.20;0.20;;;12.00;66.70;;;;;;5052189;28;20047;-78
2021/04/15 11:57:55;;;;;;;0.35;0.30;;;12.20;66.30;;;;;;5022327;28;20411;-78
2021/04/15 12:00:25;;;;;;;0.50;0.30;;;12.20;66.10;;;;;;5036002;28;20199;-80
2021/04/15 12:03:12;;;;;;;0.70;0.50;;;12.30;65.80;;;;;;5035683;28;20102;-80
2021/04/15 12:05:42;;;;;;;0.90;0.30;;;12.10;65.90;;;;;;5037682;28;20040;-78
2021/04/15 12:08:26;;;;;;;0.55;0.45;;;11.90;66.10;;;;;;5052911;28;20041;-76
2021/04/15 12:11:01;;;;;;;0.52;0.30;;;11.70;66.30;;;;;;5053755;28;20033;-76
2021/04/15 12:13:35;;;;;;;0.38;0.30;;;11.70;66.80;;;;;;5053558;28;20029;-76
2021/04/15 12:16:26;;;;;;;0.30;0.30;;;11.80;66.60;;;;;;5049848;28;20098;-77
2021/04/15 12:19:01;;;;;;;0.52;0.32;;;12.10;66.10;;;;;;5051153;28;20055;-77
2021/04/15 12:21:40;;;;;;;0.40;0.30;;;12.40;65.40;;;;;;5053128;28;20120;-76
2021/04/15 12:24:32;;;;;;;0.85;0.28;;;12.50;65.00;;;;;;5056210;28;20063;-76
2021/04/15 12:27:02;;;;;;;;;;;12.70;64.20;;;;;;5055820;28;20405;-76
2021/04/15 12:29:47;;;;;;;0.30;0.30;;;13.00;64.00;;;;;;5036606;28;19912;-76
2021/04/15 12:32:48;;;;;;;0.50;0.30;;;13.10;63.50;;;;;;5060153;28;20498;-76
2021/04/15 12:35:39;;;;;;;0.45;0.45;;;13.10;63.10;;;;;;5054880;28;20505;-76
2021/04/15 12:38:14;;;;;;;0.52;0.50;;;13.10;63.10;;;;;;5054476;28;20044;-76
2021/04/15 12:40:44;;;;;;;0.65;0.40;;;13.20;62.80;;;;;;5053026;28;20041;-75
2021/04/15 12:43:27;;;;;;;0.52;0.40;;;13.40;62.60;;;;;;5051039;28;20040;-76
2021/04/15 12:46:12;;;;;;;1.30;0.60;;;13.50;62.30;;;;;;5052034;28;20044;-76
2021/04/15 12:48:59;;;;;;;0.30;0.30;;;13.60;61.80;;;;;;5055038;28;20045;-77
2021/04/15 12:51:29;;;;;;;0.50;0.50;;;13.60;61.40;;;;;;5049909;28;20048;-77
2021/04/15 12:54:01;;;;;;;0.98;0.50;;;13.30;61.60;;;;;;5052999;28;20494;-80
2021/04/15 12:56:44;;;;;;;0.40;0.40;;;13.30;62.10;;;;;;5051065;28;20041;-79
2021/04/15 12:59:31;;;;;;;0.57;0.47;;;13.20;62.10;;;;;;5014062;28;20195;-77
2021/04/15 13:01:58;;;;;;;0.30;0.30;;;13.40;62.00;;;;;;5014080;28;20503;-76
2021/04/15 13:04:44;;;;;;;0.43;0.40;;;13.70;61.80;;;;;;5014944;28;20045;-77
2021/04/15 13:07:15;;;;;;;0.45;0.43;;;14.00;60.90;;;;;;5013806;28;20049;-79
2021/04/15 13:09:44;;;;;;;0.68;0.40;;;14.10;60.30;;;;;;5014145;28;20037;-78
2021/04/15 13:12:41;;;;;;;0.28;0.28;;;14.10;60.00;;;;;;5014462;28;20439;-79
2021/04/15 13:15:29;;;;;;;0.82;0.38;;;13.90;60.30;;;;;;4998312;28;20502;-79
2021/04/15 13:18:10;;;;;;;0.75;0.50;;;13.40;60.80;;;;;;5017805;28;20048;-81
2021/04/15 13:20:53;;;;;;;0.60;0.40;;;13.30;61.30;;;;;;4979793;28;20044;-78
2021/04/15 13:23:33;;;;;;;0.57;0.50;;;13.10;61.70;;;;;;4959153;28;20985;-78
2021/04/15 13:26:21;;;;;;;0.50;0.43;;;13.10;62.00;;;;;;5007708;28;20096;-77
2021/04/15 13:29:17;;;;;;;0.43;0.43;;;13.10;61.90;;;;;;4963759;28;20061;-79
2021/04/15 13:31:48;;;;;;;0.40;0.40;;;12.80;61.80;;;;;;4996977;28;20123;-74
2021/04/15 13:34:20;;;;;;;0.20;0.20;;;12.80;62.20;;;;;;5013880;28;20045;-74
2021/04/15 13:36:48;;;;;;;0.30;0.30;;;12.80;62.20;;;;;;5029897;28;20100;-76
2021/04/15 13:39:36;;;;;;;0.45;0.30;;;12.70;62.10;;;;;;5030158;28;20495;-76
2021/04/15 13:42:11;;;;;;;0.43;0.40;;;12.70;62.20;;;;;;5013264;28;20063;-76
2021/04/15 13:44:56;;;;;;;0.40;0.40;;;12.90;62.20;;;;;;5030476;28;20061;-77
2021/04/15 13:47:48;;;;;;;0.57;0.45;;;13.00;61.70;;;;;;5012636;28;20818;-76
2021/04/15 13:50:16;;;;;;;0.22;0.22;;;13.10;61.30;;;;;;5030103;28;20103;-76
2021/04/15 13:52:43;;;;;;;0.65;0.52;;;13.00;61.10;;;;;;5033559;28;20029;-77
2021/04/15 13:55:41;;;;;;;1.17;0.50;;;12.90;61.20;;;;;;5050735;28;20025;-77
2021/04/15 13:58:11;;;;;;;0.30;0.30;;;12.80;61.50;;;;;;5051848;28;20044;-77
2021/04/15 14:00:44;;;;;;;0.20;0.20;;;12.70;61.60;;;;;;5050672;28;20064;-78
2021/04/15 14:03:39;;;;;;;0.30;0.20;;;12.70;61.60;;;;;;5034020;28;20103;-78
2021/04/15 14:06:09;;;;;;;0.30;0.20;;;12.70;61.40;;;;;;5053777;28;20494;-79
2021/04/15 14:08:40;;;;;;;0.30;0.30;;;12.70;61.50;;;;;;5033751;28;20033;-77